sensor_id;sensor_type;location;lat;lon;timestamp;temperature;humidity
14099;DHT22;7126;48.458;7.930;2023-07-24T00:00:19;21.50;99.90
14099;DHT22;7126;48.458;7.930;2023-07-24T00:02:45;21.40;99.90
14099;DHT22;7126;48.458;7.930;2023-07-24T00:05:10;21.30;99.90
14099;DHT22;7126;48.458;7.930;2023-07-24T00:07:36;21.30;99.90
14099;DHT22;7126;48.458;7.930;2023-07-24T00:10:02;21.20;99.90
14099;DHT22;7126;48.458;7.930;2023-07-24T00:12:28;21.20;99.90
14099;DHT22;7126;48.458;7.930;2023-07-24T00:14:53;21.20;99.90
14099;DHT22;7126;48.458;7.930;2023-07-24T00:17:19;21.20;99.90
14099;DHT22;7126;48.458;7.930;2023-07-24T00:19:45;21.10;99.90
14099;DHT22;7126;48.458;7.930;2023-07-24T00:22:10;21.10;99.90
14099;DHT22;7126;48.458;7.930;2023-07-24T00:24:36;21.00;99.90
14099;DHT22;7126;48.458;7.930;2023-07-24T00:27:01;21.00;99.90
14099;DHT22;7126;48.458;7.930;2023-07-24T00:29:28;21.00;99.90
14099;DHT22;7126;48.458;7.930;2023-07-24T00:31:53;20.90;99.90
14099;DHT22;7126;48.458;7.930;2023-07-24T00:34:19;20.80;99.90
14099;DHT22;7126;48.458;7.930;2023-07-24T00:36:44;20.80;99.90
14099;DHT22;7126;48.458;7.930;2023-07-24T00:39:10;20.80;99.90
14099;DHT22;7126;48.458;7.930;2023-07-24T00:41:35;20.80;99.90
14099;DHT22;7126;48.458;7.930;2023-07-24T00:44:01;20.80;99.90
14099;DHT22;7126;48.458;7.930;2023-07-24T00:46:27;20.70;99.90
14099;DHT22;7126;48.458;7.930;2023-07-24T00:49:00;20.70;99.90
14099;DHT22;7126;48.458;7.930;2023-07-24T00:51:27;20.70;99.90
14099;DHT22;7126;48.458;7.930;2023-07-24T00:53:57;20.70;99.90
14099;DHT22;7126;48.458;7.930;2023-07-24T00:56:25;20.70;99.90
14099;DHT22;7126;48.458;7.930;2023-07-24T00:58:51;20.60;99.90
14099;DHT22;7126;48.458;7.930;2023-07-24T01:01:17;20.50;99.90
14099;DHT22;7126;48.458;7.930;2023-07-24T01:03:43;20.50;99.90
14099;DHT22;7126;48.458;7.930;2023-07-24T01:06:09;20.40;99.90
14099;DHT22;7126;48.458;7.930;2023-07-24T01:08:35;20.30;99.90
14099;DHT22;7126;48.458;7.930;2023-07-24T01:11:39;20.30;99.90
14099;DHT22;7126;48.458;7.930;2023-07-24T01:14:18;20.20;99.90
14099;DHT22;7126;48.458;7.930;2023-07-24T01:16:47;20.20;99.90
14099;DHT22;7126;48.458;7.930;2023-07-24T01:19:37;20.20;99.90
14099;DHT22;7126;48.458;7.930;2023-07-24T01:27:45;20.20;99.90
14099;DHT22;7126;48.458;7.930;2023-07-24T01:30:14;20.10;99.90
14099;DHT22;7126;48.458;7.930;2023-07-24T01:32:40;20.10;99.90
14099;DHT22;7126;48.458;7.930;2023-07-24T01:35:06;20.10;99.90
14099;DHT22;7126;48.458;7.930;2023-07-24T01:37:34;20.10;99.90
14099;DHT22;7126;48.458;7.930;2023-07-24T01:40:00;20.10;99.90
14099;DHT22;7126;48.458;7.930;2023-07-24T01:42:26;20.20;99.90
14099;DHT22;7126;48.458;7.930;2023-07-24T01:44:55;20.20;99.90
14099;DHT22;7126;48.458;7.930;2023-07-24T01:47:21;20.20;99.90
14099;DHT22;7126;48.458;7.930;2023-07-24T01:49:47;20.30;99.90
14099;DHT22;7126;48.458;7.930;2023-07-24T01:52:13;20.20;99.90
14099;DHT22;7126;48.458;7.930;2023-07-24T01:54:39;20.30;99.90
14099;DHT22;7126;48.458;7.930;2023-07-24T01:57:04;20.30;99.90
14099;DHT22;7126;48.458;7.930;2023-07-24T01:59:30;20.20;99.90
14099;DHT22;7126;48.458;7.930;2023-07-24T02:01:56;20.10;99.90
14099;DHT22;7126;48.458;7.930;2023-07-24T02:04:21;20.10;99.90
14099;DHT22;7126;48.458;7.930;2023-07-24T02:06:50;20.10;99.90
14099;DHT22;7126;48.458;7.930;2023-07-24T02:09:17;20.00;99.90
14099;DHT22;7126;48.458;7.930;2023-07-24T02:11:43;20.00;99.90
14099;DHT22;7126;48.458;7.930;2023-07-24T02:14:09;19.90;99.90
14099;DHT22;7126;48.458;7.930;2023-07-24T02:16:35;19.90;99.90
14099;DHT22;7126;48.458;7.930;2023-07-24T02:19:01;19.80;99.90
14099;DHT22;7126;48.458;7.930;2023-07-24T02:21:26;19.80;99.90
14099;DHT22;7126;48.458;7.930;2023-07-24T02:23:52;19.70;99.90
14099;DHT22;7126;48.458;7.930;2023-07-24T02:26:17;19.70;99.90
14099;DHT22;7126;48.458;7.930;2023-07-24T02:28:43;19.70;99.90
14099;DHT22;7126;48.458;7.930;2023-07-24T02:31:08;19.60;99.90
14099;DHT22;7126;48.458;7.930;2023-07-24T02:33:34;19.60;99.90
14099;DHT22;7126;48.458;7.930;2023-07-24T02:36:00;19.50;99.90
14099;DHT22;7126;48.458;7.930;2023-07-24T02:38:26;19.50;99.90
14099;DHT22;7126;48.458;7.930;2023-07-24T02:40:52;19.50;99.90
14099;DHT22;7126;48.458;7.930;2023-07-24T02:43:17;19.50;99.90
14099;DHT22;7126;48.458;7.930;2023-07-24T02:45:43;19.50;99.90
14099;DHT22;7126;48.458;7.930;2023-07-24T02:48:09;19.50;99.90
14099;DHT22;7126;48.458;7.930;2023-07-24T02:50:34;19.50;99.90
14099;DHT22;7126;48.458;7.930;2023-07-24T02:53:00;19.50;99.90
14099;DHT22;7126;48.458;7.930;2023-07-24T02:55:26;19.50;99.90
14099;DHT22;7126;48.458;7.930;2023-07-24T02:57:52;19.40;99.90
14099;DHT22;7126;48.458;7.930;2023-07-24T03:00:17;19.40;99.90
14099;DHT22;7126;48.458;7.930;2023-07-24T03:02:43;19.60;99.90
14099;DHT22;7126;48.458;7.930;2023-07-24T03:05:08;19.60;99.90
14099;DHT22;7126;48.458;7.930;2023-07-24T03:07:34;19.60;99.90
14099;DHT22;7126;48.458;7.930;2023-07-24T03:10:00;19.70;99.90
14099;DHT22;7126;48.458;7.930;2023-07-24T03:12:25;19.70;99.90
14099;DHT22;7126;48.458;7.930;2023-07-24T03:14:51;19.70;99.90
14099;DHT22;7126;48.458;7.930;2023-07-24T03:17:16;19.70;99.90
14099;DHT22;7126;48.458;7.930;2023-07-24T03:19:42;19.60;99.90
14099;DHT22;7126;48.458;7.930;2023-07-24T03:22:08;19.50;99.90
14099;DHT22;7126;48.458;7.930;2023-07-24T03:24:34;19.50;99.90
14099;DHT22;7126;48.458;7.930;2023-07-24T03:27:00;19.50;99.90
14099;DHT22;7126;48.458;7.930;2023-07-24T03:29:26;19.50;99.90
14099;DHT22;7126;48.458;7.930;2023-07-24T03:31:52;19.50;99.90
14099;DHT22;7126;48.458;7.930;2023-07-24T03:34:18;19.50;99.90
14099;DHT22;7126;48.458;7.930;2023-07-24T03:36:43;19.60;99.90
14099;DHT22;7126;48.458;7.930;2023-07-24T03:39:10;19.50;99.90
14099;DHT22;7126;48.458;7.930;2023-07-24T03:41:36;19.60;99.90
14099;DHT22;7126;48.458;7.930;2023-07-24T03:44:02;19.60;99.90
14099;DHT22;7126;48.458;7.930;2023-07-24T03:46:27;19.70;99.90
14099;DHT22;7126;48.458;7.930;2023-07-24T03:48:53;19.70;99.90
14099;DHT22;7126;48.458;7.930;2023-07-24T03:51:18;19.60;99.90
14099;DHT22;7126;48.458;7.930;2023-07-24T03:53:44;19.60;99.90
14099;DHT22;7126;48.458;7.930;2023-07-24T03:56:09;19.60;99.90
14099;DHT22;7126;48.458;7.930;2023-07-24T03:58:35;19.50;99.90
14099;DHT22;7126;48.458;7.930;2023-07-24T04:01:00;19.50;99.90
14099;DHT22;7126;48.458;7.930;2023-07-24T04:03:26;19.50;99.90
14099;DHT22;7126;48.458;7.930;2023-07-24T04:05:52;19.50;99.90
14099;DHT22;7126;48.458;7.930;2023-07-24T04:08:17;19.40;99.90
14099;DHT22;7126;48.458;7.930;2023-07-24T04:10:43;19.40;99.90
14099;DHT22;7126;48.458;7.930;2023-07-24T04:13:08;19.40;99.90
14099;DHT22;7126;48.458;7.930;2023-07-24T04:15:34;19.40;99.90
14099;DHT22;7126;48.458;7.930;2023-07-24T04:17:59;19.50;99.90
14099;DHT22;7126;48.458;7.930;2023-07-24T04:20:25;19.50;99.90
14099;DHT22;7126;48.458;7.930;2023-07-24T04:22:50;19.50;99.90
14099;DHT22;7126;48.458;7.930;2023-07-24T04:25:16;19.50;99.90
14099;DHT22;7126;48.458;7.930;2023-07-24T04:27:42;19.50;99.90
14099;DHT22;7126;48.458;7.930;2023-07-24T04:30:07;19.60;99.90
14099;DHT22;7126;48.458;7.930;2023-07-24T04:32:33;19.60;99.90
14099;DHT22;7126;48.458;7.930;2023-07-24T04:34:59;19.60;99.90
14099;DHT22;7126;48.458;7.930;2023-07-24T04:37:24;19.60;99.90
14099;DHT22;7126;48.458;7.930;2023-07-24T04:39:50;19.60;99.90
14099;DHT22;7126;48.458;7.930;2023-07-24T04:42:15;19.70;99.90
14099;DHT22;7126;48.458;7.930;2023-07-24T04:44:41;19.70;99.90
14099;DHT22;7126;48.458;7.930;2023-07-24T04:47:06;19.80;99.90
14099;DHT22;7126;48.458;7.930;2023-07-24T04:49:32;19.80;99.90
14099;DHT22;7126;48.458;7.930;2023-07-24T04:51:59;19.80;99.90
14099;DHT22;7126;48.458;7.930;2023-07-24T04:54:24;19.70;99.90
14099;DHT22;7126;48.458;7.930;2023-07-24T04:56:50;19.70;99.90
14099;DHT22;7126;48.458;7.930;2023-07-24T04:59:16;19.70;99.90
14099;DHT22;7126;48.458;7.930;2023-07-24T05:01:41;19.70;99.90
14099;DHT22;7126;48.458;7.930;2023-07-24T05:04:08;19.70;99.90
14099;DHT22;7126;48.458;7.930;2023-07-24T05:06:33;19.70;99.90
14099;DHT22;7126;48.458;7.930;2023-07-24T05:09:01;19.70;99.90
14099;DHT22;7126;48.458;7.930;2023-07-24T05:11:26;19.70;99.90
14099;DHT22;7126;48.458;7.930;2023-07-24T05:13:52;19.70;99.90
14099;DHT22;7126;48.458;7.930;2023-07-24T05:16:17;19.80;99.90
14099;DHT22;7126;48.458;7.930;2023-07-24T05:18:43;19.80;99.90
14099;DHT22;7126;48.458;7.930;2023-07-24T05:21:08;19.80;99.90
14099;DHT22;7126;48.458;7.930;2023-07-24T05:23:34;19.90;99.90
14099;DHT22;7126;48.458;7.930;2023-07-24T05:26:01;19.90;99.90
14099;DHT22;7126;48.458;7.930;2023-07-24T05:28:27;19.90;99.90
14099;DHT22;7126;48.458;7.930;2023-07-24T05:30:53;19.90;99.90
14099;DHT22;7126;48.458;7.930;2023-07-24T05:33:19;20.00;99.90
14099;DHT22;7126;48.458;7.930;2023-07-24T05:35:45;20.00;99.90
14099;DHT22;7126;48.458;7.930;2023-07-24T05:38:10;20.00;99.90
14099;DHT22;7126;48.458;7.930;2023-07-24T05:40:36;20.10;99.90
14099;DHT22;7126;48.458;7.930;2023-07-24T05:43:01;20.10;99.90
14099;DHT22;7126;48.458;7.930;2023-07-24T05:45:27;20.10;99.90
14099;DHT22;7126;48.458;7.930;2023-07-24T05:47:53;20.20;99.90
14099;DHT22;7126;48.458;7.930;2023-07-24T05:50:19;20.20;99.90
14099;DHT22;7126;48.458;7.930;2023-07-24T05:52:44;20.20;99.90
14099;DHT22;7126;48.458;7.930;2023-07-24T05:55:10;20.20;99.90
14099;DHT22;7126;48.458;7.930;2023-07-24T05:57:36;20.20;99.90
14099;DHT22;7126;48.458;7.930;2023-07-24T06:00:04;20.20;99.90
14099;DHT22;7126;48.458;7.930;2023-07-24T06:02:30;20.20;99.90
14099;DHT22;7126;48.458;7.930;2023-07-24T06:04:55;20.20;99.90
14099;DHT22;7126;48.458;7.930;2023-07-24T06:07:21;20.30;99.90
14099;DHT22;7126;48.458;7.930;2023-07-24T06:09:46;20.40;99.90
14099;DHT22;7126;48.458;7.930;2023-07-24T06:12:12;20.40;99.90
14099;DHT22;7126;48.458;7.930;2023-07-24T06:14:37;20.40;99.90
14099;DHT22;7126;48.458;7.930;2023-07-24T06:17:03;20.50;99.90
14099;DHT22;7126;48.458;7.930;2023-07-24T06:19:29;20.50;99.90
14099;DHT22;7126;48.458;7.930;2023-07-24T06:21:55;20.60;99.90
14099;DHT22;7126;48.458;7.930;2023-07-24T06:24:20;20.70;99.90
14099;DHT22;7126;48.458;7.930;2023-07-24T06:26:46;20.70;99.90
14099;DHT22;7126;48.458;7.930;2023-07-24T06:29:12;20.70;99.90
14099;DHT22;7126;48.458;7.930;2023-07-24T06:31:37;20.70;99.90
14099;DHT22;7126;48.458;7.930;2023-07-24T06:34:03;20.70;99.90
14099;DHT22;7126;48.458;7.930;2023-07-24T06:36:28;20.70;99.90
14099;DHT22;7126;48.458;7.930;2023-07-24T06:38:54;20.70;99.90
14099;DHT22;7126;48.458;7.930;2023-07-24T06:41:19;20.70;99.90
14099;DHT22;7126;48.458;7.930;2023-07-24T06:43:46;20.70;99.90
14099;DHT22;7126;48.458;7.930;2023-07-24T06:46:12;20.70;99.90
14099;DHT22;7126;48.458;7.930;2023-07-24T06:48:37;20.70;99.90
14099;DHT22;7126;48.458;7.930;2023-07-24T06:51:03;20.80;99.90
14099;DHT22;7126;48.458;7.930;2023-07-24T06:53:28;20.80;99.90
14099;DHT22;7126;48.458;7.930;2023-07-24T06:55:54;20.80;99.90
14099;DHT22;7126;48.458;7.930;2023-07-24T06:58:19;20.90;99.90
14099;DHT22;7126;48.458;7.930;2023-07-24T07:00:45;20.90;99.90
14099;DHT22;7126;48.458;7.930;2023-07-24T07:03:10;20.90;99.90
14099;DHT22;7126;48.458;7.930;2023-07-24T07:05:36;20.80;99.90
14099;DHT22;7126;48.458;7.930;2023-07-24T07:08:02;20.80;99.90
14099;DHT22;7126;48.458;7.930;2023-07-24T07:10:27;20.70;99.90
14099;DHT22;7126;48.458;7.930;2023-07-24T07:12:53;20.70;99.90
14099;DHT22;7126;48.458;7.930;2023-07-24T07:15:18;20.60;99.90
14099;DHT22;7126;48.458;7.930;2023-07-24T07:17:44;20.50;99.90
14099;DHT22;7126;48.458;7.930;2023-07-24T07:20:09;20.50;99.90
14099;DHT22;7126;48.458;7.930;2023-07-24T07:22:35;20.40;99.90
14099;DHT22;7126;48.458;7.930;2023-07-24T07:25:01;20.40;99.90
14099;DHT22;7126;48.458;7.930;2023-07-24T07:27:26;20.40;99.90
14099;DHT22;7126;48.458;7.930;2023-07-24T07:29:52;20.40;99.90
14099;DHT22;7126;48.458;7.930;2023-07-24T07:32:17;20.40;99.90
14099;DHT22;7126;48.458;7.930;2023-07-24T07:34:43;20.40;99.90
14099;DHT22;7126;48.458;7.930;2023-07-24T07:37:08;20.30;99.90
14099;DHT22;7126;48.458;7.930;2023-07-24T07:39:34;20.20;99.90
14099;DHT22;7126;48.458;7.930;2023-07-24T07:41:59;20.20;99.90
14099;DHT22;7126;48.458;7.930;2023-07-24T07:44:25;20.00;99.90
14099;DHT22;7126;48.458;7.930;2023-07-24T07:46:50;20.00;99.90
14099;DHT22;7126;48.458;7.930;2023-07-24T07:49:16;20.00;99.90
14099;DHT22;7126;48.458;7.930;2023-07-24T07:51:41;19.90;99.90
14099;DHT22;7126;48.458;7.930;2023-07-24T07:54:07;19.90;99.90
14099;DHT22;7126;48.458;7.930;2023-07-24T07:56:33;19.90;99.90
14099;DHT22;7126;48.458;7.930;2023-07-24T07:58:58;19.80;99.90
14099;DHT22;7126;48.458;7.930;2023-07-24T08:01:24;19.90;99.90
14099;DHT22;7126;48.458;7.930;2023-07-24T08:03:49;20.00;99.90
14099;DHT22;7126;48.458;7.930;2023-07-24T08:06:15;20.10;99.90
14099;DHT22;7126;48.458;7.930;2023-07-24T08:08:40;20.10;99.90
14099;DHT22;7126;48.458;7.930;2023-07-24T08:11:06;20.20;99.90
14099;DHT22;7126;48.458;7.930;2023-07-24T08:13:33;20.30;99.90
14099;DHT22;7126;48.458;7.930;2023-07-24T08:15:59;20.40;99.90
14099;DHT22;7126;48.458;7.930;2023-07-24T08:18:25;20.40;99.90
14099;DHT22;7126;48.458;7.930;2023-07-24T08:20:51;20.60;99.90
14099;DHT22;7126;48.458;7.930;2023-07-24T08:23:16;20.60;99.90
14099;DHT22;7126;48.458;7.930;2023-07-24T08:25:54;20.60;99.90
14099;DHT22;7126;48.458;7.930;2023-07-24T08:28:20;20.70;99.90
14099;DHT22;7126;48.458;7.930;2023-07-24T08:30:46;20.80;99.90
14099;DHT22;7126;48.458;7.930;2023-07-24T08:33:12;20.90;99.90
14099;DHT22;7126;48.458;7.930;2023-07-24T08:35:38;21.10;99.90
14099;DHT22;7126;48.458;7.930;2023-07-24T08:38:03;21.30;99.90
14099;DHT22;7126;48.458;7.930;2023-07-24T08:40:29;21.40;99.90
14099;DHT22;7126;48.458;7.930;2023-07-24T08:42:55;21.50;99.90
14099;DHT22;7126;48.458;7.930;2023-07-24T08:45:21;21.50;99.90
14099;DHT22;7126;48.458;7.930;2023-07-24T08:47:48;21.50;99.90
14099;DHT22;7126;48.458;7.930;2023-07-24T08:50:16;21.50;99.90
14099;DHT22;7126;48.458;7.930;2023-07-24T08:52:42;21.60;99.90
14099;DHT22;7126;48.458;7.930;2023-07-24T08:55:10;21.60;99.90
14099;DHT22;7126;48.458;7.930;2023-07-24T08:57:36;21.60;99.90
14099;DHT22;7126;48.458;7.930;2023-07-24T09:00:02;21.60;99.90
14099;DHT22;7126;48.458;7.930;2023-07-24T09:02:39;21.60;99.90
14099;DHT22;7126;48.458;7.930;2023-07-24T09:05:05;21.60;99.90
14099;DHT22;7126;48.458;7.930;2023-07-24T09:07:30;21.50;99.90
14099;DHT22;7126;48.458;7.930;2023-07-24T09:09:56;21.50;99.90
14099;DHT22;7126;48.458;7.930;2023-07-24T09:12:22;21.50;99.90
14099;DHT22;7126;48.458;7.930;2023-07-24T09:14:49;21.40;99.90
14099;DHT22;7126;48.458;7.930;2023-07-24T09:17:14;21.30;99.90
14099;DHT22;7126;48.458;7.930;2023-07-24T09:19:40;21.30;99.90
14099;DHT22;7126;48.458;7.930;2023-07-24T09:22:10;21.30;99.90
14099;DHT22;7126;48.458;7.930;2023-07-24T09:24:36;21.20;99.90
14099;DHT22;7126;48.458;7.930;2023-07-24T09:27:05;21.10;99.90
14099;DHT22;7126;48.458;7.930;2023-07-24T09:29:32;21.10;99.90
14099;DHT22;7126;48.458;7.930;2023-07-24T09:31:59;21.00;99.90
14099;DHT22;7126;48.458;7.930;2023-07-24T09:34:24;20.90;99.90
14099;DHT22;7126;48.458;7.930;2023-07-24T09:36:51;20.90;99.90
14099;DHT22;7126;48.458;7.930;2023-07-24T09:39:26;20.80;99.90
14099;DHT22;7126;48.458;7.930;2023-07-24T09:41:52;20.80;99.90
14099;DHT22;7126;48.458;7.930;2023-07-24T09:44:18;20.80;99.90
14099;DHT22;7126;48.458;7.930;2023-07-24T09:46:43;20.80;99.90
14099;DHT22;7126;48.458;7.930;2023-07-24T09:49:09;20.70;99.90
14099;DHT22;7126;48.458;7.930;2023-07-24T09:51:35;20.70;99.90
14099;DHT22;7126;48.458;7.930;2023-07-24T09:54:09;20.70;99.90
14099;DHT22;7126;48.458;7.930;2023-07-24T09:56:38;20.60;99.90
14099;DHT22;7126;48.458;7.930;2023-07-24T09:59:04;20.50;99.90
14099;DHT22;7126;48.458;7.930;2023-07-24T10:01:31;20.50;99.90
14099;DHT22;7126;48.458;7.930;2023-07-24T10:03:59;20.40;99.90
14099;DHT22;7126;48.458;7.930;2023-07-24T10:06:25;20.30;99.90
14099;DHT22;7126;48.458;7.930;2023-07-24T10:08:52;20.30;99.90
14099;DHT22;7126;48.458;7.930;2023-07-24T10:11:19;20.30;99.90
14099;DHT22;7126;48.458;7.930;2023-07-24T10:13:45;20.30;99.90
14099;DHT22;7126;48.458;7.930;2023-07-24T10:16:11;20.20;99.90
14099;DHT22;7126;48.458;7.930;2023-07-24T10:18:45;20.20;99.90
14099;DHT22;7126;48.458;7.930;2023-07-24T10:21:11;20.10;99.90
14099;DHT22;7126;48.458;7.930;2023-07-24T10:23:41;20.00;99.90
14099;DHT22;7126;48.458;7.930;2023-07-24T10:26:08;20.00;99.90
14099;DHT22;7126;48.458;7.930;2023-07-24T10:28:35;20.00;99.90
14099;DHT22;7126;48.458;7.930;2023-07-24T10:31:24;20.00;99.90
14099;DHT22;7126;48.458;7.930;2023-07-24T10:33:52;20.00;99.90
14099;DHT22;7126;48.458;7.930;2023-07-24T10:36:19;20.00;99.90
14099;DHT22;7126;48.458;7.930;2023-07-24T10:38:51;20.00;99.90
14099;DHT22;7126;48.458;7.930;2023-07-24T10:41:17;20.00;99.90
14099;DHT22;7126;48.458;7.930;2023-07-24T10:43:48;20.00;99.90
14099;DHT22;7126;48.458;7.930;2023-07-24T10:46:15;20.00;99.90
14099;DHT22;7126;48.458;7.930;2023-07-24T10:48:45;19.80;99.90
14099;DHT22;7126;48.458;7.930;2023-07-24T10:51:11;19.80;99.90
14099;DHT22;7126;48.458;7.930;2023-07-24T10:53:43;19.90;99.90
14099;DHT22;7126;48.458;7.930;2023-07-24T10:56:09;20.00;99.90
14099;DHT22;7126;48.458;7.930;2023-07-24T10:58:34;20.10;99.90
14099;DHT22;7126;48.458;7.930;2023-07-24T11:01:03;20.10;99.90
14099;DHT22;7126;48.458;7.930;2023-07-24T11:03:30;20.00;99.90
14099;DHT22;7126;48.458;7.930;2023-07-24T11:05:57;20.00;99.90
14099;DHT22;7126;48.458;7.930;2023-07-24T11:08:24;20.10;99.90
14099;DHT22;7126;48.458;7.930;2023-07-24T11:10:54;20.30;99.90
14099;DHT22;7126;48.458;7.930;2023-07-24T11:13:27;20.50;99.90
14099;DHT22;7126;48.458;7.930;2023-07-24T11:15:54;20.60;99.90
14099;DHT22;7126;48.458;7.930;2023-07-24T11:18:21;20.70;99.90
14099;DHT22;7126;48.458;7.930;2023-07-24T11:20:52;21.00;99.90
14099;DHT22;7126;48.458;7.930;2023-07-24T11:23:19;21.10;99.90
14099;DHT22;7126;48.458;7.930;2023-07-24T11:25:45;21.30;99.90
14099;DHT22;7126;48.458;7.930;2023-07-24T11:28:12;21.30;99.90
14099;DHT22;7126;48.458;7.930;2023-07-24T11:30:38;21.30;99.90
14099;DHT22;7126;48.458;7.930;2023-07-24T11:33:06;21.30;99.90
14099;DHT22;7126;48.458;7.930;2023-07-24T11:35:33;21.20;99.90
14099;DHT22;7126;48.458;7.930;2023-07-24T11:37:59;21.20;99.90
14099;DHT22;7126;48.458;7.930;2023-07-24T11:40:40;21.20;99.90
14099;DHT22;7126;48.458;7.930;2023-07-24T11:43:15;21.30;99.90
14099;DHT22;7126;48.458;7.930;2023-07-24T11:45:42;21.30;99.90
14099;DHT22;7126;48.458;7.930;2023-07-24T11:48:11;21.30;99.90
14099;DHT22;7126;48.458;7.930;2023-07-24T11:50:48;21.40;99.90
14099;DHT22;7126;48.458;7.930;2023-07-24T11:53:22;21.40;99.90
14099;DHT22;7126;48.458;7.930;2023-07-24T11:55:49;21.50;99.90
14099;DHT22;7126;48.458;7.930;2023-07-24T11:58:15;21.50;99.90
14099;DHT22;7126;48.458;7.930;2023-07-24T12:00:41;21.60;99.90
14099;DHT22;7126;48.458;7.930;2023-07-24T12:03:07;21.60;99.90
14099;DHT22;7126;48.458;7.930;2023-07-24T12:05:40;21.60;99.90
14099;DHT22;7126;48.458;7.930;2023-07-24T12:08:07;21.60;99.90
14099;DHT22;7126;48.458;7.930;2023-07-24T12:10:36;21.60;99.90
14099;DHT22;7126;48.458;7.930;2023-07-24T12:13:05;21.60;99.90
14099;DHT22;7126;48.458;7.930;2023-07-24T12:15:31;21.60;99.90
14099;DHT22;7126;48.458;7.930;2023-07-24T12:17:59;21.70;99.90
14099;DHT22;7126;48.458;7.930;2023-07-24T12:20:25;21.80;99.90
14099;DHT22;7126;48.458;7.930;2023-07-24T12:22:50;21.90;99.90
14099;DHT22;7126;48.458;7.930;2023-07-24T12:25:16;22.00;99.90
14099;DHT22;7126;48.458;7.930;2023-07-24T12:27:42;22.20;99.90
14099;DHT22;7126;48.458;7.930;2023-07-24T12:30:08;22.30;99.90
14099;DHT22;7126;48.458;7.930;2023-07-24T12:32:34;22.50;99.90
14099;DHT22;7126;48.458;7.930;2023-07-24T12:34:59;22.70;99.90
14099;DHT22;7126;48.458;7.930;2023-07-24T12:37:25;22.80;99.90
14099;DHT22;7126;48.458;7.930;2023-07-24T12:39:51;22.80;99.90
14099;DHT22;7126;48.458;7.930;2023-07-24T12:42:17;22.70;99.90
14099;DHT22;7126;48.458;7.930;2023-07-24T12:44:43;22.70;99.90
14099;DHT22;7126;48.458;7.930;2023-07-24T12:47:10;22.80;99.90
14099;DHT22;7126;48.458;7.930;2023-07-24T12:49:36;23.10;99.90
14099;DHT22;7126;48.458;7.930;2023-07-24T12:52:02;23.50;99.90
14099;DHT22;7126;48.458;7.930;2023-07-24T12:54:28;23.80;99.90
14099;DHT22;7126;48.458;7.930;2023-07-24T12:56:53;23.80;99.90
14099;DHT22;7126;48.458;7.930;2023-07-24T12:59:19;23.70;99.90
14099;DHT22;7126;48.458;7.930;2023-07-24T13:01:45;23.60;99.90
14099;DHT22;7126;48.458;7.930;2023-07-24T13:04:11;23.40;99.90
14099;DHT22;7126;48.458;7.930;2023-07-24T13:06:37;23.20;99.90
14099;DHT22;7126;48.458;7.930;2023-07-24T13:09:03;23.10;99.90
14099;DHT22;7126;48.458;7.930;2023-07-24T13:11:29;23.00;99.90
14099;DHT22;7126;48.458;7.930;2023-07-24T13:13:55;22.90;99.90
14099;DHT22;7126;48.458;7.930;2023-07-24T13:16:21;23.00;99.90
14099;DHT22;7126;48.458;7.930;2023-07-24T13:18:46;22.90;99.90
14099;DHT22;7126;48.458;7.930;2023-07-24T13:21:12;22.90;99.90
14099;DHT22;7126;48.458;7.930;2023-07-24T13:23:39;23.00;99.90
14099;DHT22;7126;48.458;7.930;2023-07-24T13:26:05;23.20;99.90
14099;DHT22;7126;48.458;7.930;2023-07-24T13:28:30;23.40;99.90
14099;DHT22;7126;48.458;7.930;2023-07-24T13:30:56;23.50;99.90
14099;DHT22;7126;48.458;7.930;2023-07-24T13:33:22;23.70;99.90
14099;DHT22;7126;48.458;7.930;2023-07-24T13:35:48;23.90;99.90
14099;DHT22;7126;48.458;7.930;2023-07-24T13:38:15;24.20;99.90
14099;DHT22;7126;48.458;7.930;2023-07-24T13:40:41;24.40;99.90
14099;DHT22;7126;48.458;7.930;2023-07-24T13:43:06;24.60;99.90
14099;DHT22;7126;48.458;7.930;2023-07-24T13:45:32;24.70;99.90
14099;DHT22;7126;48.458;7.930;2023-07-24T13:47:58;24.90;99.90
14099;DHT22;7126;48.458;7.930;2023-07-24T13:50:27;25.10;99.90
14099;DHT22;7126;48.458;7.930;2023-07-24T13:52:53;25.20;99.90
14099;DHT22;7126;48.458;7.930;2023-07-24T13:55:19;25.20;99.90
14099;DHT22;7126;48.458;7.930;2023-07-24T13:57:44;25.20;99.90
14099;DHT22;7126;48.458;7.930;2023-07-24T14:00:10;25.20;99.90
14099;DHT22;7126;48.458;7.930;2023-07-24T14:02:36;25.20;99.90
14099;DHT22;7126;48.458;7.930;2023-07-24T14:05:01;25.40;99.90
14099;DHT22;7126;48.458;7.930;2023-07-24T14:07:27;25.60;99.90
14099;DHT22;7126;48.458;7.930;2023-07-24T14:09:52;25.70;99.90
14099;DHT22;7126;48.458;7.930;2023-07-24T14:12:18;25.70;99.90
14099;DHT22;7126;48.458;7.930;2023-07-24T14:14:43;25.70;99.90
14099;DHT22;7126;48.458;7.930;2023-07-24T14:17:09;25.70;99.90
14099;DHT22;7126;48.458;7.930;2023-07-24T14:19:34;25.90;99.90
14099;DHT22;7126;48.458;7.930;2023-07-24T14:22:00;25.80;99.90
14099;DHT22;7126;48.458;7.930;2023-07-24T14:24:26;25.60;99.90
14099;DHT22;7126;48.458;7.930;2023-07-24T14:26:52;25.40;99.90
14099;DHT22;7126;48.458;7.930;2023-07-24T14:29:17;25.40;99.90
14099;DHT22;7126;48.458;7.930;2023-07-24T14:31:44;25.50;99.90
14099;DHT22;7126;48.458;7.930;2023-07-24T14:34:09;25.60;99.90
14099;DHT22;7126;48.458;7.930;2023-07-24T14:36:37;25.70;99.90
14099;DHT22;7126;48.458;7.930;2023-07-24T14:39:03;25.90;99.90
14099;DHT22;7126;48.458;7.930;2023-07-24T14:41:29;25.90;99.90
14099;DHT22;7126;48.458;7.930;2023-07-24T14:43:55;25.80;99.90
14099;DHT22;7126;48.458;7.930;2023-07-24T14:46:20;25.60;99.90
14099;DHT22;7126;48.458;7.930;2023-07-24T14:48:46;25.50;99.90
14099;DHT22;7126;48.458;7.930;2023-07-24T14:51:11;25.30;99.90
14099;DHT22;7126;48.458;7.930;2023-07-24T14:53:37;25.00;99.90
14099;DHT22;7126;48.458;7.930;2023-07-24T14:56:03;24.80;99.90
14099;DHT22;7126;48.458;7.930;2023-07-24T14:58:29;24.70;99.90
14099;DHT22;7126;48.458;7.930;2023-07-24T15:00:54;24.60;99.90
14099;DHT22;7126;48.458;7.930;2023-07-24T15:03:21;24.50;99.90
14099;DHT22;7126;48.458;7.930;2023-07-24T15:05:46;24.40;99.90
14099;DHT22;7126;48.458;7.930;2023-07-24T15:08:12;24.40;99.90
14099;DHT22;7126;48.458;7.930;2023-07-24T15:10:38;24.40;99.90
14099;DHT22;7126;48.458;7.930;2023-07-24T15:13:03;24.20;99.90
14099;DHT22;7126;48.458;7.930;2023-07-24T15:15:29;24.10;99.90
14099;DHT22;7126;48.458;7.930;2023-07-24T15:17:58;24.00;99.90
14099;DHT22;7126;48.458;7.930;2023-07-24T15:20:25;23.90;99.90
14099;DHT22;7126;48.458;7.930;2023-07-24T15:22:51;23.80;99.90
14099;DHT22;7126;48.458;7.930;2023-07-24T15:25:20;23.70;99.90
14099;DHT22;7126;48.458;7.930;2023-07-24T15:27:46;23.50;99.90
14099;DHT22;7126;48.458;7.930;2023-07-24T15:30:11;23.40;99.90
14099;DHT22;7126;48.458;7.930;2023-07-24T15:32:37;23.40;99.90
14099;DHT22;7126;48.458;7.930;2023-07-24T15:35:03;23.30;99.90
14099;DHT22;7126;48.458;7.930;2023-07-24T15:37:29;23.30;99.90
14099;DHT22;7126;48.458;7.930;2023-07-24T15:39:55;23.20;99.90
14099;DHT22;7126;48.458;7.930;2023-07-24T15:42:21;23.10;99.90
14099;DHT22;7126;48.458;7.930;2023-07-24T15:44:49;23.10;99.90